Hlavní strana
METAR-TAF:

METAR-TAF

Letiště :

Trollhättan-Vänersborg, Švédsko

zeměpisná šířka: 58-19N, zeměpisná délka: 012-21E, výška: 41 m

Aktuální stav počasí

Zpráva byla vytvořena před 33 minutami, v 11:20 UTC
Východní vítr 12 kt, proměnlivý mezi severovýchodním a jihovýchodním
Teplota 19°C
Vlhkost vzduchu 34%
Tlak 1000 hPa
Viditelnost 10 km a více
Žádná oblačnost pod 1500 m, nevyskytují se cumulonimby.

METAR: ESGT 041120Z 09012KT 050V130 CAVOK 19/03 Q1000

Čas: 13:53 (11:53 UTC)

Předpověď počasí

Zpráva byla vytvořena před 23 minutami, v 11:30 UTC
Předpověď platná od 04 v 12 UTC do 04 v 14 UTC
Východojihovýchodní vítr 10 kt s nárazy do 20 kt
Viditelnost 10 km a více
Žádná oblačnost pod 1500 m, nevyskytují se cumulonimby.

TAF: ESGT 041130Z 0412/0414 11010G20KT CAVOK

Stav a předpovědi počasí z více než 4 000 letišť (zprávy METAR a TAF).

Červené a žluté tečky na mapě představují dostupné meteorologické stanice.

Když kurzor umístíte na tečku, zobrazí se název stanice.

Pak kliknutím zobrazíte stav a předpověď počasí.

Chcete-li změnit mapu, kliknutím na zelené tlačítko se znaménkem +mapu přiblížíte, kliknutím na zelené tlačítko se znaménkem – mapu oddálíte a kliknutím na zelené šipky přejdete na sousední mapy.


METAR-TAF: